sensor_id;sensor_type;location;lat;lon;timestamp;pressure;altitude;pressure_sealevel;temperature;humidity
77793;BME280;66983;51.438;5.438;2023-04-15T00:01:59;100636.56;;;10.13;56.06
77793;BME280;66983;51.438;5.438;2023-04-15T00:04:25;100639.41;;;10.08;56.23
77793;BME280;66983;51.438;5.438;2023-04-15T00:06:52;100624.78;;;9.97;56.58
77793;BME280;66983;51.438;5.438;2023-04-15T00:09:18;100622.94;;;9.99;57.08
77793;BME280;66983;51.438;5.438;2023-04-15T00:11:44;100616.00;;;9.95;56.00
77793;BME280;66983;51.438;5.438;2023-04-15T00:14:12;100627.31;;;10.00;55.36
77793;BME280;66983;51.438;5.438;2023-04-15T00:16:37;100628.25;;;9.99;56.55
77793;BME280;66983;51.438;5.438;2023-04-15T00:19:03;100627.31;;;10.00;56.61
77793;BME280;66983;51.438;5.438;2023-04-15T00:21:29;100625.59;;;9.99;56.67
77793;BME280;66983;51.438;5.438;2023-04-15T00:23:55;100625.59;;;9.99;56.21
77793;BME280;66983;51.438;5.438;2023-04-15T00:26:21;100616.00;;;9.95;56.17
77793;BME280;66983;51.438;5.438;2023-04-15T00:28:48;100628.59;;;9.90;56.64
77793;BME280;66983;51.438;5.438;2023-04-15T00:31:14;100625.03;;;9.91;56.01
77793;BME280;66983;51.438;5.438;2023-04-15T00:33:39;100626.00;;;9.88;57.17
77793;BME280;66983;51.438;5.438;2023-04-15T00:36:06;100627.94;;;9.84;57.09
77793;BME280;66983;51.438;5.438;2023-04-15T00:38:31;100625.28;;;9.84;57.17
77793;BME280;66983;51.438;5.438;2023-04-15T00:40:57;100622.63;;;9.84;56.13
77793;BME280;66983;51.438;5.438;2023-04-15T00:43:23;100633.34;;;9.83;57.06
77793;BME280;66983;51.438;5.438;2023-04-15T00:45:52;100627.13;;;9.82;57.38
77793;BME280;66983;51.438;5.438;2023-04-15T00:48:19;100628.25;;;9.77;56.72
77793;BME280;66983;51.438;5.438;2023-04-15T00:50:45;100622.22;;;9.72;57.18
77793;BME280;66983;51.438;5.438;2023-04-15T00:53:10;100622.22;;;9.72;57.00
77793;BME280;66983;51.438;5.438;2023-04-15T00:55:37;100630.25;;;9.70;58.02
77793;BME280;66983;51.438;5.438;2023-04-15T00:58:02;100635.72;;;9.67;57.22
77793;BME280;66983;51.438;5.438;2023-04-15T01:00:28;100631.31;;;9.66;57.80
77793;BME280;66983;51.438;5.438;2023-04-15T01:02:54;100630.56;;;9.63;58.07
77793;BME280;66983;51.438;5.438;2023-04-15T01:05:20;100629.69;;;9.62;57.31
77793;BME280;66983;51.438;5.438;2023-04-15T01:07:47;100633.41;;;9.58;58.80
77793;BME280;66983;51.438;5.438;2023-04-15T01:10:13;100627.28;;;9.56;58.05
77793;BME280;66983;51.438;5.438;2023-04-15T01:12:39;100628.16;;;9.57;58.08
77793;BME280;66983;51.438;5.438;2023-04-15T01:15:06;100631.78;;;9.54;57.55
77793;BME280;66983;51.438;5.438;2023-04-15T01:17:33;100630.94;;;9.53;58.49
77793;BME280;66983;51.438;5.438;2023-04-15T01:19:59;100630.97;;;9.52;58.14
77793;BME280;66983;51.438;5.438;2023-04-15T01:22:26;100623.94;;;9.51;58.64
77793;BME280;66983;51.438;5.438;2023-04-15T01:25:02;100619.66;;;9.47;58.07
77793;BME280;66983;51.438;5.438;2023-04-15T01:27:31;100620.63;;;9.44;58.50
77793;BME280;66983;51.438;5.438;2023-04-15T01:29:57;100623.34;;;9.43;59.29
77793;BME280;66983;51.438;5.438;2023-04-15T01:32:23;100619.88;;;9.41;58.93
77793;BME280;66983;51.438;5.438;2023-04-15T01:34:50;100622.59;;;9.39;58.59
77793;BME280;66983;51.438;5.438;2023-04-15T01:37:16;100627.84;;;9.41;58.75
77793;BME280;66983;51.438;5.438;2023-04-15T01:39:42;100618.38;;;9.34;58.91
77793;BME280;66983;51.438;5.438;2023-04-15T01:42:07;100624.44;;;9.37;58.11
77793;BME280;66983;51.438;5.438;2023-04-15T01:44:33;100629.94;;;9.33;59.84
77793;BME280;66983;51.438;5.438;2023-04-15T01:46:58;100624.69;;;9.31;60.12
77793;BME280;66983;51.438;5.438;2023-04-15T01:49:25;100623.81;;;9.31;59.12
77793;BME280;66983;51.438;5.438;2023-04-15T01:51:52;100631.91;;;9.28;59.27
77793;BME280;66983;51.438;5.438;2023-04-15T01:54:18;100625.78;;;9.26;58.72
77793;BME280;66983;51.438;5.438;2023-04-15T01:56:44;100623.94;;;9.28;58.61
77793;BME280;66983;51.438;5.438;2023-04-15T01:59:09;100619.59;;;9.25;58.76
77793;BME280;66983;51.438;5.438;2023-04-15T02:01:35;100626.00;;;9.19;59.60
77793;BME280;66983;51.438;5.438;2023-04-15T02:04:01;100626.91;;;9.18;59.84
77793;BME280;66983;51.438;5.438;2023-04-15T02:06:26;100627.88;;;9.16;60.27
77793;BME280;66983;51.438;5.438;2023-04-15T02:08:54;100625.59;;;9.07;60.21
77793;BME280;66983;51.438;5.438;2023-04-15T02:11:19;100629.94;;;9.09;59.19
77793;BME280;66983;51.438;5.438;2023-04-15T02:13:45;100634.50;;;9.06;59.58
77793;BME280;66983;51.438;5.438;2023-04-15T02:16:18;100635.56;;;9.00;60.32
77793;BME280;66983;51.438;5.438;2023-04-15T02:18:45;100640.88;;;9.00;59.68
77793;BME280;66983;51.438;5.438;2023-04-15T02:21:11;100644.34;;;9.02;59.72
77793;BME280;66983;51.438;5.438;2023-04-15T02:23:37;100642.69;;;9.00;60.38
77793;BME280;66983;51.438;5.438;2023-04-15T02:26:03;100627.00;;;8.92;60.41
77793;BME280;66983;51.438;5.438;2023-04-15T02:28:30;100648.97;;;8.97;59.74
77793;BME280;66983;51.438;5.438;2023-04-15T02:30:55;100653.47;;;8.95;60.89
77793;BME280;66983;51.438;5.438;2023-04-15T02:33:23;100648.16;;;8.95;60.00
77793;BME280;66983;51.438;5.438;2023-04-15T02:35:49;100655.31;;;8.93;60.58
77793;BME280;66983;51.438;5.438;2023-04-15T02:38:15;100657.03;;;8.94;59.54
77793;BME280;66983;51.438;5.438;2023-04-15T02:40:42;100666.75;;;8.95;60.29
77793;BME280;66983;51.438;5.438;2023-04-15T02:43:07;100659.00;;;8.89;60.50
77793;BME280;66983;51.438;5.438;2023-04-15T02:45:34;100657.59;;;8.79;61.04
77793;BME280;66983;51.438;5.438;2023-04-15T02:48:01;100664.75;;;8.77;61.06
77793;BME280;66983;51.438;5.438;2023-04-15T02:50:30;100654.41;;;8.68;62.97
77793;BME280;66983;51.438;5.438;2023-04-15T02:52:56;100674.75;;;8.69;62.82
77793;BME280;66983;51.438;5.438;2023-04-15T02:55:22;100673.03;;;8.68;61.55
77793;BME280;66983;51.438;5.438;2023-04-15T02:57:47;100677.63;;;8.63;62.44
77793;BME280;66983;51.438;5.438;2023-04-15T03:00:13;100669.59;;;8.64;61.65
77793;BME280;66983;51.438;5.438;2023-04-15T03:02:43;100677.72;;;8.60;62.16
77793;BME280;66983;51.438;5.438;2023-04-15T03:05:13;100675.25;;;8.55;62.98
77793;BME280;66983;51.438;5.438;2023-04-15T03:07:42;100677.94;;;8.54;62.58
77793;BME280;66983;51.438;5.438;2023-04-15T03:10:09;100678.13;;;8.47;63.15
77793;BME280;66983;51.438;5.438;2023-04-15T03:12:35;100673.84;;;8.43;63.19
77793;BME280;66983;51.438;5.438;2023-04-15T03:15:01;100673.88;;;8.42;62.29
77793;BME280;66983;51.438;5.438;2023-04-15T03:17:33;100666.88;;;8.39;63.56
77793;BME280;66983;51.438;5.438;2023-04-15T03:20:00;100673.94;;;8.40;63.62
77793;BME280;66983;51.438;5.438;2023-04-15T03:22:26;100676.59;;;8.40;62.29
77793;BME280;66983;51.438;5.438;2023-04-15T03:24:53;100681.09;;;8.38;63.89
77793;BME280;66983;51.438;5.438;2023-04-15T03:27:19;100689.25;;;8.32;63.15
77793;BME280;66983;51.438;5.438;2023-04-15T03:29:44;100675.25;;;8.27;63.79
77793;BME280;66983;51.438;5.438;2023-04-15T03:32:11;100685.22;;;8.19;63.96
77793;BME280;66983;51.438;5.438;2023-04-15T03:34:37;100680.91;;;8.15;65.21
77793;BME280;66983;51.438;5.438;2023-04-15T03:37:04;100689.81;;;8.14;64.54
77793;BME280;66983;51.438;5.438;2023-04-15T03:39:30;100689.84;;;8.12;64.15
77793;BME280;66983;51.438;5.438;2023-04-15T03:41:55;100686.38;;;8.10;64.78
77793;BME280;66983;51.438;5.438;2023-04-15T03:44:22;100687.50;;;8.03;65.25
77793;BME280;66983;51.438;5.438;2023-04-15T03:46:47;100694.69;;;8.00;65.15
77793;BME280;66983;51.438;5.438;2023-04-15T03:49:13;100690.38;;;7.96;65.46
77793;BME280;66983;51.438;5.438;2023-04-15T03:51:38;100695.88;;;7.90;65.36
77793;BME280;66983;51.438;5.438;2023-04-15T03:54:04;100704.66;;;7.92;65.74
77793;BME280;66983;51.438;5.438;2023-04-15T03:56:30;100710.06;;;7.89;66.34
77793;BME280;66983;51.438;5.438;2023-04-15T03:58:55;100704.00;;;7.83;65.91
77793;BME280;66983;51.438;5.438;2023-04-15T04:01:21;100705.78;;;7.83;65.79
77793;BME280;66983;51.438;5.438;2023-04-15T04:03:47;100701.41;;;7.82;66.65
77793;BME280;66983;51.438;5.438;2023-04-15T04:06:13;100713.97;;;7.77;66.81
77793;BME280;66983;51.438;5.438;2023-04-15T04:08:39;100716.81;;;7.69;66.24
77793;BME280;66983;51.438;5.438;2023-04-15T04:11:04;100716.00;;;7.67;67.08
77793;BME280;66983;51.438;5.438;2023-04-15T04:13:31;100716.91;;;7.66;66.75
77793;BME280;66983;51.438;5.438;2023-04-15T04:15:56;100731.94;;;7.66;67.17
77793;BME280;66983;51.438;5.438;2023-04-15T04:18:22;100732.81;;;7.66;66.91
77793;BME280;66983;51.438;5.438;2023-04-15T04:20:47;100742.59;;;7.64;67.09
77793;BME280;66983;51.438;5.438;2023-04-15T04:23:13;100744.50;;;7.59;67.84
77793;BME280;66983;51.438;5.438;2023-04-15T04:25:39;100741.00;;;7.59;67.86
77793;BME280;66983;51.438;5.438;2023-04-15T04:28:04;100744.75;;;7.52;68.36
77793;BME280;66983;51.438;5.438;2023-04-15T04:30:30;100752.81;;;7.47;68.06
77793;BME280;66983;51.438;5.438;2023-04-15T04:32:55;100755.34;;;7.52;67.99
77793;BME280;66983;51.438;5.438;2023-04-15T04:35:21;100754.44;;;7.53;68.32
77793;BME280;66983;51.438;5.438;2023-04-15T04:37:47;100753.66;;;7.49;68.45
77793;BME280;66983;51.438;5.438;2023-04-15T04:40:12;100761.66;;;7.47;68.80
77793;BME280;66983;51.438;5.438;2023-04-15T04:42:38;100760.88;;;7.44;68.03
77793;BME280;66983;51.438;5.438;2023-04-15T04:45:03;100770.56;;;7.45;68.67
77793;BME280;66983;51.438;5.438;2023-04-15T04:47:29;100771.56;;;7.41;68.80
77793;BME280;66983;51.438;5.438;2023-04-15T04:49:55;100783.06;;;7.40;68.79
77793;BME280;66983;51.438;5.438;2023-04-15T04:52:20;100783.06;;;7.40;68.93
77793;BME280;66983;51.438;5.438;2023-04-15T04:54:46;100784.09;;;7.34;69.53
77793;BME280;66983;51.438;5.438;2023-04-15T04:57:12;100786.00;;;7.29;69.99
77793;BME280;66983;51.438;5.438;2023-04-15T04:59:38;100794.84;;;7.28;69.87
77793;BME280;66983;51.438;5.438;2023-04-15T05:02:04;100798.38;;;7.29;70.14
77793;BME280;66983;51.438;5.438;2023-04-15T05:04:30;100792.19;;;7.28;69.17
77793;BME280;66983;51.438;5.438;2023-04-15T05:06:57;100793.00;;;7.32;69.61
77793;BME280;66983;51.438;5.438;2023-04-15T05:09:22;100803.59;;;7.32;69.85
77793;BME280;66983;51.438;5.438;2023-04-15T05:11:48;100803.75;;;7.27;70.15
77793;BME280;66983;51.438;5.438;2023-04-15T05:14:13;100803.69;;;7.29;70.11
77793;BME280;66983;51.438;5.438;2023-04-15T05:16:39;100814.25;;;7.30;69.74
77793;BME280;66983;51.438;5.438;2023-04-15T05:19:04;100819.59;;;7.29;70.92
77793;BME280;66983;51.438;5.438;2023-04-15T05:21:30;100815.19;;;7.28;71.41
77793;BME280;66983;51.438;5.438;2023-04-15T05:23:56;100816.03;;;7.30;71.01
77793;BME280;66983;51.438;5.438;2023-04-15T05:26:21;100825.75;;;7.29;70.82
77793;BME280;66983;51.438;5.438;2023-04-15T05:28:48;100831.03;;;7.31;70.92
77793;BME280;66983;51.438;5.438;2023-04-15T05:31:14;100831.03;;;7.31;70.94
77793;BME280;66983;51.438;5.438;2023-04-15T05:33:40;100838.94;;;7.32;71.00
77793;BME280;66983;51.438;5.438;2023-04-15T05:36:06;100849.47;;;7.35;71.00
77793;BME280;66983;51.438;5.438;2023-04-15T05:38:31;100849.50;;;7.34;71.15
77793;BME280;66983;51.438;5.438;2023-04-15T05:40:57;100846.03;;;7.32;71.33
77793;BME280;66983;51.438;5.438;2023-04-15T05:43:23;100854.81;;;7.34;71.14
77793;BME280;66983;51.438;5.438;2023-04-15T05:45:48;100866.22;;;7.37;71.15
77793;BME280;66983;51.438;5.438;2023-04-15T05:48:14;100861.84;;;7.35;71.17
77793;BME280;66983;51.438;5.438;2023-04-15T05:50:42;100877.75;;;7.35;70.99
77793;BME280;66983;51.438;5.438;2023-04-15T05:53:08;100868.97;;;7.33;71.79
77793;BME280;66983;51.438;5.438;2023-04-15T05:55:34;100882.16;;;7.36;71.77
77793;BME280;66983;51.438;5.438;2023-04-15T05:57:59;100888.22;;;7.41;71.11
77793;BME280;66983;51.438;5.438;2023-04-15T06:00:25;100886.41;;;7.43;71.57
77793;BME280;66983;51.438;5.438;2023-04-15T06:02:51;100889.88;;;7.45;71.49
77793;BME280;66983;51.438;5.438;2023-04-15T06:05:17;100888.03;;;7.48;71.80
77793;BME280;66983;51.438;5.438;2023-04-15T06:07:43;100895.03;;;7.51;71.34
77793;BME280;66983;51.438;5.438;2023-04-15T06:10:09;100901.97;;;7.55;71.28
77793;BME280;66983;51.438;5.438;2023-04-15T06:12:34;100893.84;;;7.63;70.99
77793;BME280;66983;51.438;5.438;2023-04-15T06:15:01;100905.09;;;7.72;70.66
77793;BME280;66983;51.438;5.438;2023-04-15T06:17:26;100903.19;;;7.77;71.04
77793;BME280;66983;51.438;5.438;2023-04-15T06:19:52;100915.31;;;7.86;71.26
77793;BME280;66983;51.438;5.438;2023-04-15T06:22:22;100915.91;;;7.97;69.89
77793;BME280;66983;51.438;5.438;2023-04-15T06:24:47;100919.00;;;8.13;70.86
77793;BME280;66983;51.438;5.438;2023-04-15T06:27:15;100923.31;;;8.17;69.74
77793;BME280;66983;51.438;5.438;2023-04-15T06:29:41;100929.38;;;8.22;70.07
77793;BME280;66983;51.438;5.438;2023-04-15T06:32:06;100930.13;;;8.27;69.44
77793;BME280;66983;51.438;5.438;2023-04-15T06:34:32;100938.63;;;8.40;69.71
77793;BME280;66983;51.438;5.438;2023-04-15T06:36:58;100947.31;;;8.46;69.85
77793;BME280;66983;51.438;5.438;2023-04-15T06:39:23;100946.19;;;8.55;68.70
77793;BME280;66983;51.438;5.438;2023-04-15T06:41:49;100948.63;;;8.61;68.80
77793;BME280;66983;51.438;5.438;2023-04-15T06:44:15;100953.91;;;8.63;69.29
77793;BME280;66983;51.438;5.438;2023-04-15T06:46:40;100957.34;;;8.66;69.10
77793;BME280;66983;51.438;5.438;2023-04-15T06:49:06;100959.09;;;8.67;68.58
77793;BME280;66983;51.438;5.438;2023-04-15T06:51:33;100959.88;;;8.71;67.78
77793;BME280;66983;51.438;5.438;2023-04-15T06:53:58;100971.25;;;8.76;67.80
77793;BME280;66983;51.438;5.438;2023-04-15T06:56:24;100970.09;;;8.84;68.58
77793;BME280;66983;51.438;5.438;2023-04-15T06:58:49;100976.00;;;8.94;67.31
77793;BME280;66983;51.438;5.438;2023-04-15T07:01:15;100975.69;;;9.05;66.94
77793;BME280;66983;51.438;5.438;2023-04-15T07:03:41;100990.63;;;9.09;67.85
77793;BME280;66983;51.438;5.438;2023-04-15T07:06:07;100991.22;;;9.18;67.75
77793;BME280;66983;51.438;5.438;2023-04-15T07:08:34;100991.13;;;9.22;66.50
77793;BME280;66983;51.438;5.438;2023-04-15T07:11:00;100997.25;;;9.24;67.90
77793;BME280;66983;51.438;5.438;2023-04-15T07:13:26;100999.69;;;9.31;67.34
77793;BME280;66983;51.438;5.438;2023-04-15T07:15:52;101002.09;;;9.39;66.75
77793;BME280;66983;51.438;5.438;2023-04-15T07:18:17;100996.53;;;9.46;67.02
77793;BME280;66983;51.438;5.438;2023-04-15T07:20:43;100997.03;;;9.59;66.71
77793;BME280;66983;51.438;5.438;2023-04-15T07:23:08;101004.69;;;9.68;65.72
77793;BME280;66983;51.438;5.438;2023-04-15T07:25:34;101008.91;;;9.75;65.84
77793;BME280;66983;51.438;5.438;2023-04-15T07:27:59;101022.59;;;9.90;64.86
77793;BME280;66983;51.438;5.438;2023-04-15T07:30:26;101023.28;;;9.96;65.73
77793;BME280;66983;51.438;5.438;2023-04-15T07:32:53;101024.78;;;10.05;65.16
77793;BME280;66983;51.438;5.438;2023-04-15T07:35:18;101027.09;;;10.14;65.43
77793;BME280;66983;51.438;5.438;2023-04-15T07:37:46;101029.56;;;10.22;65.58
77793;BME280;66983;51.438;5.438;2023-04-15T07:40:11;101029.41;;;10.26;65.03
77793;BME280;66983;51.438;5.438;2023-04-15T07:42:39;101031.75;;;10.35;65.55
77793;BME280;66983;51.438;5.438;2023-04-15T07:45:05;101039.44;;;10.43;64.72
77793;BME280;66983;51.438;5.438;2023-04-15T07:47:31;101040.88;;;10.53;64.33
77793;BME280;66983;51.438;5.438;2023-04-15T07:49:56;101038.81;;;10.61;62.86
77793;BME280;66983;51.438;5.438;2023-04-15T07:52:22;101036.38;;;10.55;61.47
77793;BME280;66983;51.438;5.438;2023-04-15T07:54:48;101053.66;;;10.68;62.41
77793;BME280;66983;51.438;5.438;2023-04-15T07:57:13;101046.31;;;10.75;61.58
77793;BME280;66983;51.438;5.438;2023-04-15T07:59:39;101066.28;;;10.88;61.02
77793;BME280;66983;51.438;5.438;2023-04-15T08:02:04;101067.09;;;10.90;60.82
77793;BME280;66983;51.438;5.438;2023-04-15T08:04:30;101074.38;;;10.85;60.87
77793;BME280;66983;51.438;5.438;2023-04-15T08:06:56;101077.88;;;10.87;60.89
77793;BME280;66983;51.438;5.438;2023-04-15T08:09:22;101068.03;;;10.89;60.96
77793;BME280;66983;51.438;5.438;2023-04-15T08:11:48;101073.91;;;10.97;61.35
77793;BME280;66983;51.438;5.438;2023-04-15T08:14:15;101087.69;;;11.10;62.14
77793;BME280;66983;51.438;5.438;2023-04-15T08:16:41;101085.66;;;11.16;60.96
77793;BME280;66983;51.438;5.438;2023-04-15T08:19:06;101081.13;;;11.18;60.95
77793;BME280;66983;51.438;5.438;2023-04-15T08:21:32;101094.59;;;11.15;61.04
77793;BME280;66983;51.438;5.438;2023-04-15T08:23:58;101094.44;;;11.18;60.79
77793;BME280;66983;51.438;5.438;2023-04-15T08:26:24;101093.72;;;11.15;60.92
77793;BME280;66983;51.438;5.438;2023-04-15T08:28:50;101101.53;;;11.19;61.42
77793;BME280;66983;51.438;5.438;2023-04-15T08:31:17;101100.44;;;11.25;61.48
77793;BME280;66983;51.438;5.438;2023-04-15T08:33:43;101108.28;;;11.30;61.35
77793;BME280;66983;51.438;5.438;2023-04-15T08:36:09;101113.28;;;11.39;61.80
77793;BME280;66983;51.438;5.438;2023-04-15T08:38:35;101112.97;;;11.46;61.43
77793;BME280;66983;51.438;5.438;2023-04-15T08:41:11;101119.66;;;11.58;60.62
77793;BME280;66983;51.438;5.438;2023-04-15T08:43:57;101121.38;;;11.59;58.89
77793;BME280;66983;51.438;5.438;2023-04-15T08:46:25;101123.75;;;11.67;58.96
77793;BME280;66983;51.438;5.438;2023-04-15T08:48:55;101126.50;;;11.65;58.20
77793;BME280;66983;51.438;5.438;2023-04-15T08:51:21;101127.38;;;11.66;59.67
77793;BME280;66983;51.438;5.438;2023-04-15T08:53:48;101129.72;;;11.73;59.81
77793;BME280;66983;51.438;5.438;2023-04-15T08:56:15;101136.47;;;11.83;58.79
77793;BME280;66983;51.438;5.438;2023-04-15T08:58:43;101142.34;;;11.93;57.15
77793;BME280;66983;51.438;5.438;2023-04-15T09:01:11;101155.38;;;12.01;57.76
77793;BME280;66983;51.438;5.438;2023-04-15T09:03:37;101155.94;;;12.09;57.30
77793;BME280;66983;51.438;5.438;2023-04-15T09:06:04;101165.47;;;12.16;57.19
77793;BME280;66983;51.438;5.438;2023-04-15T09:08:31;101164.47;;;12.18;56.76
77793;BME280;66983;51.438;5.438;2023-04-15T09:10:56;101165.41;;;12.17;55.86
77793;BME280;66983;51.438;5.438;2023-04-15T09:13:22;101171.63;;;12.18;55.81
77793;BME280;66983;51.438;5.438;2023-04-15T09:15:47;101175.69;;;12.27;56.02
77793;BME280;66983;51.438;5.438;2023-04-15T09:18:26;101185.28;;;12.32;53.68
77793;BME280;66983;51.438;5.438;2023-04-15T09:20:53;101181.72;;;12.32;55.01
77793;BME280;66983;51.438;5.438;2023-04-15T09:23:18;101191.44;;;12.34;53.21
77793;BME280;66983;51.438;5.438;2023-04-15T09:25:44;101194.22;;;12.31;53.20
77793;BME280;66983;51.438;5.438;2023-04-15T09:28:09;101201.88;;;12.40;55.00
77793;BME280;66983;51.438;5.438;2023-04-15T09:30:36;101207.22;;;12.40;53.59
77793;BME280;66983;51.438;5.438;2023-04-15T09:33:03;101205.84;;;12.30;53.32
77793;BME280;66983;51.438;5.438;2023-04-15T09:35:33;101214.69;;;12.32;53.97
77793;BME280;66983;51.438;5.438;2023-04-15T09:38:05;101205.72;;;12.33;53.82
77793;BME280;66983;51.438;5.438;2023-04-15T09:42:58;101218.66;;;12.44;53.62
77793;BME280;66983;51.438;5.438;2023-04-15T09:45:24;101218.47;;;12.48;53.02
77793;BME280;66983;51.438;5.438;2023-04-15T09:47:50;101215.53;;;12.54;54.24
77793;BME280;66983;51.438;5.438;2023-04-15T09:50:18;101216.53;;;12.52;52.40
77793;BME280;66983;51.438;5.438;2023-04-15T09:52:44;101217.53;;;12.49;53.15
77793;BME280;66983;51.438;5.438;2023-04-15T09:55:12;101235.25;;;12.52;52.20
77793;BME280;66983;51.438;5.438;2023-04-15T09:57:38;101220.34;;;12.46;53.00
77793;BME280;66983;51.438;5.438;2023-04-15T10:00:07;101229.25;;;12.47;53.37
77793;BME280;66983;51.438;5.438;2023-04-15T10:02:36;101230.78;;;12.52;54.47
77793;BME280;66983;51.438;5.438;2023-04-15T10:05:02;101237.44;;;12.64;52.18
77793;BME280;66983;51.438;5.438;2023-04-15T10:07:28;101229.22;;;12.69;52.91
77793;BME280;66983;51.438;5.438;2023-04-15T10:09:55;101224.00;;;12.66;52.12
77793;BME280;66983;51.438;5.438;2023-04-15T10:12:21;101234.63;;;12.67;51.41
77793;BME280;66983;51.438;5.438;2023-04-15T10:14:54;101231.38;;;12.81;52.17
77793;BME280;66983;51.438;5.438;2023-04-15T10:17:21;101222.03;;;12.91;52.09
77793;BME280;66983;51.438;5.438;2023-04-15T10:19:48;101230.41;;;13.04;53.12
77793;BME280;66983;51.438;5.438;2023-04-15T10:22:14;101236.44;;;13.09;50.82
77793;BME280;66983;51.438;5.438;2023-04-15T10:24:39;101236.75;;;13.23;52.97
77793;BME280;66983;51.438;5.438;2023-04-15T10:27:06;101231.97;;;13.30;51.98
77793;BME280;66983;51.438;5.438;2023-04-15T10:29:33;101246.50;;;13.44;51.35
77793;BME280;66983;51.438;5.438;2023-04-15T10:32:00;101237.06;;;13.36;49.28
77793;BME280;66983;51.438;5.438;2023-04-15T10:34:27;101238.94;;;13.34;49.28
77793;BME280;66983;51.438;5.438;2023-04-15T10:36:55;101241.28;;;13.41;50.73
77793;BME280;66983;51.438;5.438;2023-04-15T10:39:42;101235.53;;;13.50;48.85
77793;BME280;66983;51.438;5.438;2023-04-15T10:42:13;101248.75;;;13.53;50.54
77793;BME280;66983;51.438;5.438;2023-04-15T10:44:50;101250.56;;;13.53;49.47
77793;BME280;66983;51.438;5.438;2023-04-15T10:47:20;101250.53;;;13.34;47.36
77793;BME280;66983;51.438;5.438;2023-04-15T10:49:48;101250.66;;;13.31;48.57
77793;BME280;66983;51.438;5.438;2023-04-15T10:52:16;101263.09;;;13.32;49.08
77793;BME280;66983;51.438;5.438;2023-04-15T10:54:43;101254.88;;;13.37;48.71
77793;BME280;66983;51.438;5.438;2023-04-15T10:57:21;101259.97;;;13.43;49.51
77793;BME280;66983;51.438;5.438;2023-04-15T11:05:05;101268.53;;;13.51;48.33
77793;BME280;66983;51.438;5.438;2023-04-15T11:12:57;101265.31;;;13.63;47.54
77793;BME280;66983;51.438;5.438;2023-04-15T11:15:32;101272.66;;;13.58;47.86
77793;BME280;66983;51.438;5.438;2023-04-15T11:18:11;101277.75;;;13.64;49.61
77793;BME280;66983;51.438;5.438;2023-04-15T11:20:38;101272.41;;;13.64;46.85
77793;BME280;66983;51.438;5.438;2023-04-15T11:23:04;101267.44;;;13.75;47.52
77793;BME280;66983;51.438;5.438;2023-04-15T11:25:32;101278.53;;;13.86;46.88
77793;BME280;66983;51.438;5.438;2023-04-15T11:28:00;101271.22;;;13.90;46.96
77793;BME280;66983;51.438;5.438;2023-04-15T11:30:28;101278.47;;;14.07;46.96
77793;BME280;66983;51.438;5.438;2023-04-15T11:33:04;101279.19;;;14.10;48.04
77793;BME280;66983;51.438;5.438;2023-04-15T11:35:31;101285.28;;;14.14;47.60
77793;BME280;66983;51.438;5.438;2023-04-15T11:37:57;101279.13;;;14.12;47.06
77793;BME280;66983;51.438;5.438;2023-04-15T11:40:28;101285.16;;;14.17;45.74
77793;BME280;66983;51.438;5.438;2023-04-15T11:43:08;101288.84;;;14.14;46.47
77793;BME280;66983;51.438;5.438;2023-04-15T11:45:47;101291.31;;;14.19;47.29
77793;BME280;66983;51.438;5.438;2023-04-15T11:48:13;101285.69;;;14.25;47.45
77793;BME280;66983;51.438;5.438;2023-04-15T11:50:39;101300.75;;;14.27;47.54
77793;BME280;66983;51.438;5.438;2023-04-15T11:53:07;101300.69;;;14.29;47.05
77793;BME280;66983;51.438;5.438;2023-04-15T11:55:45;101294.94;;;14.18;47.02
77793;BME280;66983;51.438;5.438;2023-04-15T12:00:41;101301.09;;;14.20;48.09
77793;BME280;66983;51.438;5.438;2023-04-15T12:03:30;101308.06;;;14.24;48.38
77793;BME280;66983;51.438;5.438;2023-04-15T12:06:22;101307.75;;;14.30;49.42
77793;BME280;66983;51.438;5.438;2023-04-15T12:11:21;101322.41;;;14.23;46.89
77793;BME280;66983;51.438;5.438;2023-04-15T12:13:56;101309.16;;;14.20;48.86
77793;BME280;66983;51.438;5.438;2023-04-15T12:16:23;101311.69;;;14.23;48.46
77793;BME280;66983;51.438;5.438;2023-04-15T12:18:54;101321.59;;;14.21;48.75
77793;BME280;66983;51.438;5.438;2023-04-15T12:21:22;101318.66;;;14.27;50.35
77793;BME280;66983;51.438;5.438;2023-04-15T12:23:50;101320.22;;;14.31;48.66
77793;BME280;66983;51.438;5.438;2023-04-15T12:26:17;101324.13;;;14.44;48.75
77793;BME280;66983;51.438;5.438;2023-04-15T12:28:43;101321.50;;;14.62;49.16
77793;BME280;66983;51.438;5.438;2023-04-15T12:31:10;101316.50;;;14.54;48.71
77793;BME280;66983;51.438;5.438;2023-04-15T12:33:37;101334.69;;;14.47;48.30
77793;BME280;66983;51.438;5.438;2023-04-15T12:36:04;101343.06;;;14.40;47.80
77793;BME280;66983;51.438;5.438;2023-04-15T12:38:30;101345.50;;;14.46;46.57
77793;BME280;66983;51.438;5.438;2023-04-15T12:40:57;101338.97;;;14.51;47.83
77793;BME280;66983;51.438;5.438;2023-04-15T12:43:22;101345.78;;;14.58;47.67
77793;BME280;66983;51.438;5.438;2023-04-15T12:45:48;101362.19;;;14.71;47.54
77793;BME280;66983;51.438;5.438;2023-04-15T12:48:13;101359.56;;;14.70;48.26
77793;BME280;66983;51.438;5.438;2023-04-15T12:50:39;101368.97;;;14.59;46.80
77793;BME280;66983;51.438;5.438;2023-04-15T12:53:05;101363.25;;;14.48;47.09
77793;BME280;66983;51.438;5.438;2023-04-15T12:55:30;101366.81;;;14.49;48.31
77793;BME280;66983;51.438;5.438;2023-04-15T12:57:56;101370.59;;;14.45;47.24
77793;BME280;66983;51.438;5.438;2023-04-15T13:00:22;101374.00;;;14.48;47.38
77793;BME280;66983;51.438;5.438;2023-04-15T13:02:48;101366.88;;;14.47;48.02
77793;BME280;66983;51.438;5.438;2023-04-15T13:05:14;101373.06;;;14.49;49.41
77793;BME280;66983;51.438;5.438;2023-04-15T13:07:41;101380.56;;;14.41;47.26
77793;BME280;66983;51.438;5.438;2023-04-15T13:10:07;101377.06;;;14.39;47.88
77793;BME280;66983;51.438;5.438;2023-04-15T13:12:32;101384.94;;;14.44;47.40